KORFKECG

Guest
Details From KORF - Norfolk Intl
To KECG - Elizabeth City Cgas Rgnl
Flight Number -
Tags Routegen Generated
Created
Modified
Stats Distance 44 nm / 82 km
Max Altitude 100 ft / 30 m
Waypoints 5
Social Downloads 8
Likes 0
Share

Download

Looking for another format? Having issues loading an existing format? Contact us
Advertisement - Login to hide

Notes

Departing runway 21 KORF. Arriving runway 9 KECG.

Route

KORF +36.83_-076.26 +36.54_-076.17 +36.26_-076.07 KECG

ID Type Via Altitude (ft/m) Position (lat/lon) Dist (leg/tot) Name
O KORF APT - 0 / 0 36.88586 / -76.20829 - / 0 nm
+36.83_-076.26 LATLON - 100 / 30 36.82858 / -76.26355 4 / 4 nm
+36.54_-076.17 LATLON - 100 / 30 36.54300 / -76.16681 17 / 22 nm
+36.26_-076.07 LATLON - 100 / 30 36.25742 / -76.07007 17 / 39 nm
O KECG APT - 0 / 0 36.26051 / -76.15974 4 / 44 nm

Altitude Profile

Advertisement - Login to hide

KORF

Details ICAO KORF (ORF)
Name Norfolk
Region United States
Timezone America/New_York (UTC-4.0)
Stats Elevation 24 ft / 7 m (AMSL)
Location 36.894200° -76.202200°
Runways 2
Magnetic Variation 10.951° W

METAR

KORF 270600Z AUTO 26004KT 8SM OVC004 21/21 A2995

Decode

TAF

TAF KORF 270520Z 2706/2806 VRB03KT 5SM BR OVC005 FM270900 VRB03KT 4SM BR OVC003 FM271300 VRB03KT P6SM BKN008 FM271800 30004KT P6SM SCT030 FM271900 26004KT P6SM BKN030 FM272000 17004KT P6SM BKN040

Decode

Departure Runways

ID Width Length Bearing (true/mag) Surface Threshold Overrun Markings Lighting
05 151 ft / 46 m 9,012 ft / 2,747 m 37.69° / 48.64° ASPHALT 1,001 ft / 305 m 197 ft / 60 m PREC-APP CENTERLINE EDGE THRESHOLD MALSR
14 151 ft / 46 m 4,880 ft / 1,487 m 128.11° / 139.06° ASPHALT 217 ft / 66 m 0 ft / 0 m APP EDGE THRESHOLD REIL-OMNI
23 151 ft / 46 m 9,012 ft / 2,747 m 217.70° / 228.65° ASPHALT 0 ft / 0 m 200 ft / 61 m PREC-APP CENTERLINE EDGE THRESHOLD MALSR
32 151 ft / 46 m 4,880 ft / 1,487 m 308.12° / 319.07° ASPHALT 0 ft / 0 m 0 ft / 0 m APP EDGE THRESHOLD REIL-OMNI

KECG

Details ICAO KECG (ECG)
Name Elizabeth City Regional Airport
Region United States
Timezone America/New_York (UTC-4.0)
Stats Elevation 10 ft / 3 m (AMSL)
Location 36.260900° -76.172000°
Runways 1
Magnetic Variation 10.857° W

METAR

KECG 270554Z AUTO 29006KT 5SM BR OVC003 21/21 A2996 RMK AO2 SLP144 T02110206 10233 20211 58007

Decode

TAF

TAF KECG 270520Z 2706/2806 VRB03KT 2SM BR OVC002 FM271300 30004KT P6SM BKN005 FM271600 27004KT P6SM BKN015 FM271700 24004KT P6SM SCT030 FM272000 20005KT P6SM SCT080

Decode

Destination Runways

ID Width Length Bearing (true/mag) Surface Threshold Overrun Markings Lighting
10 150 ft / 46 m 7,204 ft / 2,196 m 92.41° / 103.27° CONCRETE 0 ft / 0 m 0 ft / 0 m APP CENTERLINE EDGE THRESHOLD
28 150 ft / 46 m 7,204 ft / 2,196 m 272.43° / 283.28° CONCRETE 0 ft / 0 m 0 ft / 0 m APP CENTERLINE EDGE THRESHOLD TDZ REIL-OMNI

Popular Alternatives